Terminal Aerodrome Forecast
Issued by NWS

Home | Current Version | Previous Version | Text Only | Print | Product List | Glossary Off
Versions: 1 2 3 4 5 6 7 8 9 10 11 12 13 14 15 16 17 18

000
FTUS41 KCLE 220500
TAFFDY
TAF
KFDY 220533Z 2206/2306 24009KT P6SM -SHRA SCT045 OVC080
      TEMPO 2207/2209 5SM -SHRA BR BKN025
     FM220900 26012KT 5SM -SHRA BR BKN015 OVC050
     FM221200 30014KT P6SM BKN012 OVC040
     FM221600 31018G26KT P6SM BKN025
     FM221900 31020G30KT P6SM SCT035
     FM230100 32011KT P6SM SCT030=

USA.gov is the U.S. government's official web portal to all federal, state and local government web resources and services.